sensor_id;sensor_type;location;lat;lon;timestamp;temperature;humidity
10388;DHT22;5240;51.128;4.566;2023-08-01T00:01:34;16.60;99.90
10388;DHT22;5240;51.128;4.566;2023-08-01T00:04:01;16.60;99.90
10388;DHT22;5240;51.128;4.566;2023-08-01T00:06:28;16.60;99.90
10388;DHT22;5240;51.128;4.566;2023-08-01T00:08:54;16.50;99.90
10388;DHT22;5240;51.128;4.566;2023-08-01T00:11:22;16.60;99.90
10388;DHT22;5240;51.128;4.566;2023-08-01T00:13:50;16.50;99.90
10388;DHT22;5240;51.128;4.566;2023-08-01T00:16:17;16.50;99.90
10388;DHT22;5240;51.128;4.566;2023-08-01T00:18:44;16.40;99.90
10388;DHT22;5240;51.128;4.566;2023-08-01T00:21:11;16.40;99.90
10388;DHT22;5240;51.128;4.566;2023-08-01T00:23:38;16.50;99.90
10388;DHT22;5240;51.128;4.566;2023-08-01T00:26:05;16.40;99.90
10388;DHT22;5240;51.128;4.566;2023-08-01T00:28:32;16.40;99.90
10388;DHT22;5240;51.128;4.566;2023-08-01T00:31:05;16.40;99.90
10388;DHT22;5240;51.128;4.566;2023-08-01T00:33:32;16.40;99.90
10388;DHT22;5240;51.128;4.566;2023-08-01T00:35:59;16.30;99.90
10388;DHT22;5240;51.128;4.566;2023-08-01T00:38:27;16.30;99.90
10388;DHT22;5240;51.128;4.566;2023-08-01T00:40:54;16.30;99.90
10388;DHT22;5240;51.128;4.566;2023-08-01T00:43:21;16.20;99.90
10388;DHT22;5240;51.128;4.566;2023-08-01T00:45:48;16.20;99.90
10388;DHT22;5240;51.128;4.566;2023-08-01T00:48:17;16.20;99.90
10388;DHT22;5240;51.128;4.566;2023-08-01T00:50:45;16.10;99.90
10388;DHT22;5240;51.128;4.566;2023-08-01T00:53:12;16.10;99.90
10388;DHT22;5240;51.128;4.566;2023-08-01T00:55:40;16.10;99.90
10388;DHT22;5240;51.128;4.566;2023-08-01T00:58:07;16.00;99.90
10388;DHT22;5240;51.128;4.566;2023-08-01T01:00:34;16.00;99.90
10388;DHT22;5240;51.128;4.566;2023-08-01T01:03:02;16.00;99.90
10388;DHT22;5240;51.128;4.566;2023-08-01T01:05:36;16.00;99.90
10388;DHT22;5240;51.128;4.566;2023-08-01T01:08:03;16.00;99.90
10388;DHT22;5240;51.128;4.566;2023-08-01T01:10:31;16.00;99.90
10388;DHT22;5240;51.128;4.566;2023-08-01T01:12:58;16.00;99.90
10388;DHT22;5240;51.128;4.566;2023-08-01T01:15:25;16.00;99.90
10388;DHT22;5240;51.128;4.566;2023-08-01T01:17:52;16.00;99.90
10388;DHT22;5240;51.128;4.566;2023-08-01T01:20:22;16.00;99.90
10388;DHT22;5240;51.128;4.566;2023-08-01T01:22:52;16.00;99.90
10388;DHT22;5240;51.128;4.566;2023-08-01T01:25:20;16.00;99.90
10388;DHT22;5240;51.128;4.566;2023-08-01T01:27:49;16.00;99.90
10388;DHT22;5240;51.128;4.566;2023-08-01T01:30:18;16.00;99.90
10388;DHT22;5240;51.128;4.566;2023-08-01T01:32:46;16.00;99.90
10388;DHT22;5240;51.128;4.566;2023-08-01T01:35:13;16.00;99.90
10388;DHT22;5240;51.128;4.566;2023-08-01T01:37:40;16.00;99.90
10388;DHT22;5240;51.128;4.566;2023-08-01T01:40:09;16.00;99.90
10388;DHT22;5240;51.128;4.566;2023-08-01T01:42:36;16.00;99.90
10388;DHT22;5240;51.128;4.566;2023-08-01T01:45:04;15.90;99.90
10388;DHT22;5240;51.128;4.566;2023-08-01T01:47:32;15.90;99.90
10388;DHT22;5240;51.128;4.566;2023-08-01T01:49:59;15.90;99.90
10388;DHT22;5240;51.128;4.566;2023-08-01T01:52:26;15.90;99.90
10388;DHT22;5240;51.128;4.566;2023-08-01T01:54:53;15.90;99.90
10388;DHT22;5240;51.128;4.566;2023-08-01T01:57:21;15.90;99.90
10388;DHT22;5240;51.128;4.566;2023-08-01T01:59:48;15.80;99.90
10388;DHT22;5240;51.128;4.566;2023-08-01T02:02:15;15.90;99.90
10388;DHT22;5240;51.128;4.566;2023-08-01T02:04:42;15.80;99.90
10388;DHT22;5240;51.128;4.566;2023-08-01T02:07:09;15.90;99.90
10388;DHT22;5240;51.128;4.566;2023-08-01T02:09:36;15.90;99.90
10388;DHT22;5240;51.128;4.566;2023-08-01T02:12:03;15.90;99.90
10388;DHT22;5240;51.128;4.566;2023-08-01T02:14:32;15.90;99.90
10388;DHT22;5240;51.128;4.566;2023-08-01T02:16:59;16.00;99.90
10388;DHT22;5240;51.128;4.566;2023-08-01T02:19:26;16.00;99.90
10388;DHT22;5240;51.128;4.566;2023-08-01T02:21:53;16.00;99.90
10388;DHT22;5240;51.128;4.566;2023-08-01T02:24:20;16.00;99.90
10388;DHT22;5240;51.128;4.566;2023-08-01T02:26:48;16.10;99.90
10388;DHT22;5240;51.128;4.566;2023-08-01T02:29:15;16.00;99.90
10388;DHT22;5240;51.128;4.566;2023-08-01T02:31:44;16.00;99.90
10388;DHT22;5240;51.128;4.566;2023-08-01T02:34:11;16.00;99.90
10388;DHT22;5240;51.128;4.566;2023-08-01T02:36:38;15.90;99.90
10388;DHT22;5240;51.128;4.566;2023-08-01T02:39:06;15.90;99.90
10388;DHT22;5240;51.128;4.566;2023-08-01T02:41:33;15.90;99.90
10388;DHT22;5240;51.128;4.566;2023-08-01T02:44:00;15.90;99.90
10388;DHT22;5240;51.128;4.566;2023-08-01T02:46:27;15.90;99.90
10388;DHT22;5240;51.128;4.566;2023-08-01T02:48:56;15.90;99.90
10388;DHT22;5240;51.128;4.566;2023-08-01T02:51:23;15.90;99.90
10388;DHT22;5240;51.128;4.566;2023-08-01T02:53:50;15.90;99.90
10388;DHT22;5240;51.128;4.566;2023-08-01T02:56:17;15.80;99.90
10388;DHT22;5240;51.128;4.566;2023-08-01T02:58:44;15.90;99.90
10388;DHT22;5240;51.128;4.566;2023-08-01T03:01:11;15.90;99.90
10388;DHT22;5240;51.128;4.566;2023-08-01T03:03:39;15.90;99.90
10388;DHT22;5240;51.128;4.566;2023-08-01T03:06:08;15.90;99.90
10388;DHT22;5240;51.128;4.566;2023-08-01T03:08:35;16.00;99.90
10388;DHT22;5240;51.128;4.566;2023-08-01T03:11:02;16.00;99.90
10388;DHT22;5240;51.128;4.566;2023-08-01T03:13:29;16.00;99.90
10388;DHT22;5240;51.128;4.566;2023-08-01T03:15:56;16.00;99.90
10388;DHT22;5240;51.128;4.566;2023-08-01T03:18:23;16.00;99.90
10388;DHT22;5240;51.128;4.566;2023-08-01T03:20:50;16.00;99.90
10388;DHT22;5240;51.128;4.566;2023-08-01T03:23:18;16.00;99.90
10388;DHT22;5240;51.128;4.566;2023-08-01T03:25:45;16.00;99.90
10388;DHT22;5240;51.128;4.566;2023-08-01T03:28:12;16.00;99.90
10388;DHT22;5240;51.128;4.566;2023-08-01T03:30:39;16.00;99.90
10388;DHT22;5240;51.128;4.566;2023-08-01T03:33:06;16.00;99.90
10388;DHT22;5240;51.128;4.566;2023-08-01T03:35:33;16.10;99.90
10388;DHT22;5240;51.128;4.566;2023-08-01T03:38:00;16.10;99.90
10388;DHT22;5240;51.128;4.566;2023-08-01T03:40:29;16.00;99.90
10388;DHT22;5240;51.128;4.566;2023-08-01T03:42:56;16.00;99.90
10388;DHT22;5240;51.128;4.566;2023-08-01T03:45:23;16.10;99.90
10388;DHT22;5240;51.128;4.566;2023-08-01T03:47:50;16.00;99.90
10388;DHT22;5240;51.128;4.566;2023-08-01T03:50:17;16.00;99.90
10388;DHT22;5240;51.128;4.566;2023-08-01T03:52:44;16.10;99.90
10388;DHT22;5240;51.128;4.566;2023-08-01T03:55:11;16.10;99.90
10388;DHT22;5240;51.128;4.566;2023-08-01T03:57:39;16.10;99.90
10388;DHT22;5240;51.128;4.566;2023-08-01T04:00:07;16.10;99.90
10388;DHT22;5240;51.128;4.566;2023-08-01T04:02:39;16.10;99.90
10388;DHT22;5240;51.128;4.566;2023-08-01T04:05:07;16.10;99.90
10388;DHT22;5240;51.128;4.566;2023-08-01T04:07:34;16.10;99.90
10388;DHT22;5240;51.128;4.566;2023-08-01T04:10:01;16.10;99.90
10388;DHT22;5240;51.128;4.566;2023-08-01T04:12:29;16.10;99.90
10388;DHT22;5240;51.128;4.566;2023-08-01T04:14:58;16.00;99.90
10388;DHT22;5240;51.128;4.566;2023-08-01T04:17:25;16.00;99.90
10388;DHT22;5240;51.128;4.566;2023-08-01T04:19:52;16.00;99.90
10388;DHT22;5240;51.128;4.566;2023-08-01T04:22:19;16.00;99.90
10388;DHT22;5240;51.128;4.566;2023-08-01T04:24:46;16.00;99.90
10388;DHT22;5240;51.128;4.566;2023-08-01T04:27:13;16.00;99.90
10388;DHT22;5240;51.128;4.566;2023-08-01T04:29:40;16.10;99.90
10388;DHT22;5240;51.128;4.566;2023-08-01T04:32:08;16.10;99.90
10388;DHT22;5240;51.128;4.566;2023-08-01T04:34:38;16.10;99.90
10388;DHT22;5240;51.128;4.566;2023-08-01T04:37:05;16.10;99.90
10388;DHT22;5240;51.128;4.566;2023-08-01T04:39:32;16.10;99.90
10388;DHT22;5240;51.128;4.566;2023-08-01T04:41:59;16.10;99.90
10388;DHT22;5240;51.128;4.566;2023-08-01T04:44:26;16.00;99.90
10388;DHT22;5240;51.128;4.566;2023-08-01T04:46:54;16.10;99.90
10388;DHT22;5240;51.128;4.566;2023-08-01T04:49:23;16.10;99.90
10388;DHT22;5240;51.128;4.566;2023-08-01T04:51:51;16.00;99.90
10388;DHT22;5240;51.128;4.566;2023-08-01T04:54:18;16.00;99.90
10388;DHT22;5240;51.128;4.566;2023-08-01T04:56:45;15.90;99.90
10388;DHT22;5240;51.128;4.566;2023-08-01T04:59:12;15.90;99.90
10388;DHT22;5240;51.128;4.566;2023-08-01T05:01:39;15.90;99.90
10388;DHT22;5240;51.128;4.566;2023-08-01T05:04:06;15.90;99.90
10388;DHT22;5240;51.128;4.566;2023-08-01T05:06:35;15.90;99.90
10388;DHT22;5240;51.128;4.566;2023-08-01T05:09:02;16.00;99.90
10388;DHT22;5240;51.128;4.566;2023-08-01T05:11:29;16.00;99.90
10388;DHT22;5240;51.128;4.566;2023-08-01T05:13:56;16.00;99.90
10388;DHT22;5240;51.128;4.566;2023-08-01T05:16:23;16.10;99.90
10388;DHT22;5240;51.128;4.566;2023-08-01T05:18:50;16.20;99.90
10388;DHT22;5240;51.128;4.566;2023-08-01T05:21:17;16.20;99.90
10388;DHT22;5240;51.128;4.566;2023-08-01T05:23:46;16.20;99.90
10388;DHT22;5240;51.128;4.566;2023-08-01T05:26:13;16.30;99.90
10388;DHT22;5240;51.128;4.566;2023-08-01T05:28:40;16.30;99.90
10388;DHT22;5240;51.128;4.566;2023-08-01T05:31:06;16.30;99.90
10388;DHT22;5240;51.128;4.566;2023-08-01T05:33:33;16.40;99.90
10388;DHT22;5240;51.128;4.566;2023-08-01T05:36:01;16.40;99.90
10388;DHT22;5240;51.128;4.566;2023-08-01T05:38:27;16.50;99.90
10388;DHT22;5240;51.128;4.566;2023-08-01T05:40:56;16.50;99.90
10388;DHT22;5240;51.128;4.566;2023-08-01T05:43:23;16.50;99.90
10388;DHT22;5240;51.128;4.566;2023-08-01T05:45:50;16.50;99.90
10388;DHT22;5240;51.128;4.566;2023-08-01T05:48:17;16.60;99.90
10388;DHT22;5240;51.128;4.566;2023-08-01T05:50:44;16.60;99.90
10388;DHT22;5240;51.128;4.566;2023-08-01T05:53:11;16.70;99.90
10388;DHT22;5240;51.128;4.566;2023-08-01T05:55:37;16.70;99.90
10388;DHT22;5240;51.128;4.566;2023-08-01T05:58:06;16.70;99.90
10388;DHT22;5240;51.128;4.566;2023-08-01T06:00:33;16.70;99.90
10388;DHT22;5240;51.128;4.566;2023-08-01T06:03:00;16.80;99.90
10388;DHT22;5240;51.128;4.566;2023-08-01T06:05:27;16.80;99.90
10388;DHT22;5240;51.128;4.566;2023-08-01T06:07:54;16.80;99.90
10388;DHT22;5240;51.128;4.566;2023-08-01T06:10:22;16.90;99.90
10388;DHT22;5240;51.128;4.566;2023-08-01T06:12:49;16.90;99.90
10388;DHT22;5240;51.128;4.566;2023-08-01T06:15:17;16.90;99.90
10388;DHT22;5240;51.128;4.566;2023-08-01T06:17:44;16.90;99.90
10388;DHT22;5240;51.128;4.566;2023-08-01T06:20:11;17.00;99.90
10388;DHT22;5240;51.128;4.566;2023-08-01T06:22:39;16.90;99.90
10388;DHT22;5240;51.128;4.566;2023-08-01T06:25:06;17.00;99.90
10388;DHT22;5240;51.128;4.566;2023-08-01T06:27:33;17.10;99.90
10388;DHT22;5240;51.128;4.566;2023-08-01T06:30:00;17.30;99.90
10388;DHT22;5240;51.128;4.566;2023-08-01T06:32:29;17.30;99.90
10388;DHT22;5240;51.128;4.566;2023-08-01T06:34:56;17.20;99.90
10388;DHT22;5240;51.128;4.566;2023-08-01T06:37:22;17.20;99.90
10388;DHT22;5240;51.128;4.566;2023-08-01T06:39:49;17.20;99.90
10388;DHT22;5240;51.128;4.566;2023-08-01T06:42:16;17.20;99.90
10388;DHT22;5240;51.128;4.566;2023-08-01T06:44:43;17.20;99.90
10388;DHT22;5240;51.128;4.566;2023-08-01T06:47:10;17.40;99.90
10388;DHT22;5240;51.128;4.566;2023-08-01T06:49:39;17.60;99.90
10388;DHT22;5240;51.128;4.566;2023-08-01T06:52:06;17.70;99.90
10388;DHT22;5240;51.128;4.566;2023-08-01T06:54:33;17.80;99.90
10388;DHT22;5240;51.128;4.566;2023-08-01T06:57:00;17.80;99.90
10388;DHT22;5240;51.128;4.566;2023-08-01T06:59:27;17.80;99.90
10388;DHT22;5240;51.128;4.566;2023-08-01T07:01:55;17.90;99.90
10388;DHT22;5240;51.128;4.566;2023-08-01T07:04:22;18.00;99.90
10388;DHT22;5240;51.128;4.566;2023-08-01T07:06:50;18.10;99.90
10388;DHT22;5240;51.128;4.566;2023-08-01T07:09:17;18.00;99.90
10388;DHT22;5240;51.128;4.566;2023-08-01T07:11:44;17.90;99.90
10388;DHT22;5240;51.128;4.566;2023-08-01T07:14:12;17.90;99.90
10388;DHT22;5240;51.128;4.566;2023-08-01T07:16:39;17.90;99.90
10388;DHT22;5240;51.128;4.566;2023-08-01T07:19:06;17.90;99.90
10388;DHT22;5240;51.128;4.566;2023-08-01T07:21:32;18.00;99.90
10388;DHT22;5240;51.128;4.566;2023-08-01T07:24:01;18.00;99.90
10388;DHT22;5240;51.128;4.566;2023-08-01T07:26:28;18.00;99.90
10388;DHT22;5240;51.128;4.566;2023-08-01T07:28:55;18.20;99.90
10388;DHT22;5240;51.128;4.566;2023-08-01T07:31:22;18.30;99.90
10388;DHT22;5240;51.128;4.566;2023-08-01T07:33:49;18.30;99.90
10388;DHT22;5240;51.128;4.566;2023-08-01T07:36:16;18.30;99.90
10388;DHT22;5240;51.128;4.566;2023-08-01T07:38:43;18.20;99.90
10388;DHT22;5240;51.128;4.566;2023-08-01T07:41:12;18.20;99.90
10388;DHT22;5240;51.128;4.566;2023-08-01T07:43:39;18.20;99.90
10388;DHT22;5240;51.128;4.566;2023-08-01T07:46:06;18.20;99.90
10388;DHT22;5240;51.128;4.566;2023-08-01T07:48:34;18.10;99.90
10388;DHT22;5240;51.128;4.566;2023-08-01T07:51:01;18.30;99.90
10388;DHT22;5240;51.128;4.566;2023-08-01T07:53:30;18.60;99.90
10388;DHT22;5240;51.128;4.566;2023-08-01T07:55:57;18.60;99.90
10388;DHT22;5240;51.128;4.566;2023-08-01T07:58:26;18.70;99.90
10388;DHT22;5240;51.128;4.566;2023-08-01T08:00:53;18.90;99.90
10388;DHT22;5240;51.128;4.566;2023-08-01T08:03:20;18.80;99.90
10388;DHT22;5240;51.128;4.566;2023-08-01T08:05:49;18.80;99.90
10388;DHT22;5240;51.128;4.566;2023-08-01T08:08:16;19.00;99.90
10388;DHT22;5240;51.128;4.566;2023-08-01T08:10:43;19.20;99.90
10388;DHT22;5240;51.128;4.566;2023-08-01T08:13:10;19.20;99.90
10388;DHT22;5240;51.128;4.566;2023-08-01T08:15:38;19.10;99.90
10388;DHT22;5240;51.128;4.566;2023-08-01T08:18:05;19.00;99.90
10388;DHT22;5240;51.128;4.566;2023-08-01T08:20:41;19.20;99.90
10388;DHT22;5240;51.128;4.566;2023-08-01T08:23:08;19.30;99.90
10388;DHT22;5240;51.128;4.566;2023-08-01T08:25:35;19.30;99.90
10388;DHT22;5240;51.128;4.566;2023-08-01T08:28:02;19.30;99.90
10388;DHT22;5240;51.128;4.566;2023-08-01T08:30:29;19.30;99.90
10388;DHT22;5240;51.128;4.566;2023-08-01T08:32:58;19.60;99.90
10388;DHT22;5240;51.128;4.566;2023-08-01T08:35:29;19.80;99.90
10388;DHT22;5240;51.128;4.566;2023-08-01T08:37:58;20.00;99.90
10388;DHT22;5240;51.128;4.566;2023-08-01T08:40:25;20.10;99.90
10388;DHT22;5240;51.128;4.566;2023-08-01T08:42:52;19.90;99.90
10388;DHT22;5240;51.128;4.566;2023-08-01T08:45:23;19.60;99.90
10388;DHT22;5240;51.128;4.566;2023-08-01T08:47:55;19.60;99.90
10388;DHT22;5240;51.128;4.566;2023-08-01T08:50:24;19.80;99.90
10388;DHT22;5240;51.128;4.566;2023-08-01T08:52:52;20.00;99.90
10388;DHT22;5240;51.128;4.566;2023-08-01T08:55:20;20.20;99.90
10388;DHT22;5240;51.128;4.566;2023-08-01T08:57:49;20.20;99.90
10388;DHT22;5240;51.128;4.566;2023-08-01T09:00:18;20.00;99.90
10388;DHT22;5240;51.128;4.566;2023-08-01T09:02:45;20.20;99.90
10388;DHT22;5240;51.128;4.566;2023-08-01T09:05:12;20.30;99.90
10388;DHT22;5240;51.128;4.566;2023-08-01T09:07:42;20.40;99.90
10388;DHT22;5240;51.128;4.566;2023-08-01T09:10:13;20.40;99.90
10388;DHT22;5240;51.128;4.566;2023-08-01T09:12:40;20.40;99.90
10388;DHT22;5240;51.128;4.566;2023-08-01T09:15:08;20.60;99.90
10388;DHT22;5240;51.128;4.566;2023-08-01T09:17:47;20.90;99.90
10388;DHT22;5240;51.128;4.566;2023-08-01T09:20:14;21.30;99.90
10388;DHT22;5240;51.128;4.566;2023-08-01T09:22:44;21.10;99.90
10388;DHT22;5240;51.128;4.566;2023-08-01T09:25:11;21.00;99.90
10388;DHT22;5240;51.128;4.566;2023-08-01T09:27:38;21.00;99.90
10388;DHT22;5240;51.128;4.566;2023-08-01T09:30:07;21.20;99.90
10388;DHT22;5240;51.128;4.566;2023-08-01T09:32:34;21.40;99.90
10388;DHT22;5240;51.128;4.566;2023-08-01T09:35:01;22.20;99.90
10388;DHT22;5240;51.128;4.566;2023-08-01T09:37:38;23.50;99.90
10388;DHT22;5240;51.128;4.566;2023-08-01T09:40:08;23.80;99.90
10388;DHT22;5240;51.128;4.566;2023-08-01T09:42:38;23.10;99.90
10388;DHT22;5240;51.128;4.566;2023-08-01T09:45:11;22.20;99.90
10388;DHT22;5240;51.128;4.566;2023-08-01T09:47:39;21.50;99.90
10388;DHT22;5240;51.128;4.566;2023-08-01T09:50:06;21.20;99.90
10388;DHT22;5240;51.128;4.566;2023-08-01T09:52:34;21.00;99.90
10388;DHT22;5240;51.128;4.566;2023-08-01T09:55:01;21.10;99.90
10388;DHT22;5240;51.128;4.566;2023-08-01T09:57:31;21.70;99.90
10388;DHT22;5240;51.128;4.566;2023-08-01T09:59:59;22.90;99.90
10388;DHT22;5240;51.128;4.566;2023-08-01T10:02:29;23.80;99.90
10388;DHT22;5240;51.128;4.566;2023-08-01T10:04:58;24.40;99.90
10388;DHT22;5240;51.128;4.566;2023-08-01T10:07:29;24.40;99.90
10388;DHT22;5240;51.128;4.566;2023-08-01T10:09:58;24.60;99.90
10388;DHT22;5240;51.128;4.566;2023-08-01T10:12:26;25.20;99.90
10388;DHT22;5240;51.128;4.566;2023-08-01T10:14:55;24.70;99.90
10388;DHT22;5240;51.128;4.566;2023-08-01T10:17:24;24.40;99.90
10388;DHT22;5240;51.128;4.566;2023-08-01T10:19:53;23.80;99.90
10388;DHT22;5240;51.128;4.566;2023-08-01T10:22:23;23.20;99.90
10388;DHT22;5240;51.128;4.566;2023-08-01T10:24:51;23.00;99.90
10388;DHT22;5240;51.128;4.566;2023-08-01T10:27:21;23.10;99.90
10388;DHT22;5240;51.128;4.566;2023-08-01T10:29:58;23.00;99.90
10388;DHT22;5240;51.128;4.566;2023-08-01T10:32:31;22.70;99.90
10388;DHT22;5240;51.128;4.566;2023-08-01T10:35:00;22.50;99.90
10388;DHT22;5240;51.128;4.566;2023-08-01T10:37:38;22.30;99.90
10388;DHT22;5240;51.128;4.566;2023-08-01T10:40:07;22.40;99.90
10388;DHT22;5240;51.128;4.566;2023-08-01T10:42:39;22.50;99.90
10388;DHT22;5240;51.128;4.566;2023-08-01T10:45:18;22.40;99.90
10388;DHT22;5240;51.128;4.566;2023-08-01T10:47:46;22.30;99.90
10388;DHT22;5240;51.128;4.566;2023-08-01T10:50:14;22.60;99.90
10388;DHT22;5240;51.128;4.566;2023-08-01T10:52:41;22.60;99.90
10388;DHT22;5240;51.128;4.566;2023-08-01T10:55:09;22.60;99.90
10388;DHT22;5240;51.128;4.566;2023-08-01T10:57:38;22.50;99.90
10388;DHT22;5240;51.128;4.566;2023-08-01T11:00:07;22.50;99.90
10388;DHT22;5240;51.128;4.566;2023-08-01T11:02:36;22.70;99.90
10388;DHT22;5240;51.128;4.566;2023-08-01T11:05:05;22.80;99.90
10388;DHT22;5240;51.128;4.566;2023-08-01T11:07:32;22.90;99.90
10388;DHT22;5240;51.128;4.566;2023-08-01T11:10:07;23.10;99.90
10388;DHT22;5240;51.128;4.566;2023-08-01T11:12:36;23.60;99.90
10388;DHT22;5240;51.128;4.566;2023-08-01T11:15:04;24.60;99.90
10388;DHT22;5240;51.128;4.566;2023-08-01T11:17:35;25.20;99.90
10388;DHT22;5240;51.128;4.566;2023-08-01T11:20:04;25.50;99.90
10388;DHT22;5240;51.128;4.566;2023-08-01T11:22:32;25.70;99.90
10388;DHT22;5240;51.128;4.566;2023-08-01T11:25:00;25.80;99.90
10388;DHT22;5240;51.128;4.566;2023-08-01T11:27:27;25.30;99.90
10388;DHT22;5240;51.128;4.566;2023-08-01T11:29:54;24.40;99.90
10388;DHT22;5240;51.128;4.566;2023-08-01T11:32:22;23.70;99.90
10388;DHT22;5240;51.128;4.566;2023-08-01T11:35:00;23.10;99.90
10388;DHT22;5240;51.128;4.566;2023-08-01T11:37:28;23.20;99.90
10388;DHT22;5240;51.128;4.566;2023-08-01T11:39:57;23.80;99.90
10388;DHT22;5240;51.128;4.566;2023-08-01T11:42:24;24.50;99.90
10388;DHT22;5240;51.128;4.566;2023-08-01T11:44:51;25.10;99.90
10388;DHT22;5240;51.128;4.566;2023-08-01T11:47:19;25.10;99.90
10388;DHT22;5240;51.128;4.566;2023-08-01T11:49:46;24.80;99.90
10388;DHT22;5240;51.128;4.566;2023-08-01T11:52:25;24.40;99.90
10388;DHT22;5240;51.128;4.566;2023-08-01T11:54:52;24.40;99.90
10388;DHT22;5240;51.128;4.566;2023-08-01T11:57:20;25.10;99.90
10388;DHT22;5240;51.128;4.566;2023-08-01T11:59:47;25.40;99.90
10388;DHT22;5240;51.128;4.566;2023-08-01T12:02:22;25.30;99.90
10388;DHT22;5240;51.128;4.566;2023-08-01T12:04:49;24.90;99.90
10388;DHT22;5240;51.128;4.566;2023-08-01T12:07:17;24.20;99.90
10388;DHT22;5240;51.128;4.566;2023-08-01T12:09:55;23.80;99.90
10388;DHT22;5240;51.128;4.566;2023-08-01T12:12:22;23.80;99.90
10388;DHT22;5240;51.128;4.566;2023-08-01T12:14:49;23.80;99.90
10388;DHT22;5240;51.128;4.566;2023-08-01T12:17:16;24.00;99.90
10388;DHT22;5240;51.128;4.566;2023-08-01T12:19:43;24.40;99.90
10388;DHT22;5240;51.128;4.566;2023-08-01T12:22:10;25.00;99.90
10388;DHT22;5240;51.128;4.566;2023-08-01T12:24:37;25.00;99.90
10388;DHT22;5240;51.128;4.566;2023-08-01T12:27:07;25.20;99.90
10388;DHT22;5240;51.128;4.566;2023-08-01T12:29:34;24.70;99.90
10388;DHT22;5240;51.128;4.566;2023-08-01T12:32:02;25.30;99.90
10388;DHT22;5240;51.128;4.566;2023-08-01T12:34:29;25.60;99.90
10388;DHT22;5240;51.128;4.566;2023-08-01T12:36:56;25.60;99.90
10388;DHT22;5240;51.128;4.566;2023-08-01T12:39:23;25.20;99.90
10388;DHT22;5240;51.128;4.566;2023-08-01T12:41:51;24.20;99.90
10388;DHT22;5240;51.128;4.566;2023-08-01T12:44:20;23.50;99.90
10388;DHT22;5240;51.128;4.566;2023-08-01T12:46:47;23.20;99.90
10388;DHT22;5240;51.128;4.566;2023-08-01T12:49:14;23.70;99.90
10388;DHT22;5240;51.128;4.566;2023-08-01T12:51:41;24.30;99.90
10388;DHT22;5240;51.128;4.566;2023-08-01T12:54:10;24.50;99.90
10388;DHT22;5240;51.128;4.566;2023-08-01T12:56:37;25.10;99.90
10388;DHT22;5240;51.128;4.566;2023-08-01T12:59:04;25.50;99.90
10388;DHT22;5240;51.128;4.566;2023-08-01T13:01:33;25.70;99.90
10388;DHT22;5240;51.128;4.566;2023-08-01T13:03:59;25.70;99.90
10388;DHT22;5240;51.128;4.566;2023-08-01T13:06:26;25.60;99.90
10388;DHT22;5240;51.128;4.566;2023-08-01T13:08:53;24.70;99.90
10388;DHT22;5240;51.128;4.566;2023-08-01T13:11:20;23.80;99.90
10388;DHT22;5240;51.128;4.566;2023-08-01T13:13:47;23.10;99.90
10388;DHT22;5240;51.128;4.566;2023-08-01T13:16:14;22.70;99.90
10388;DHT22;5240;51.128;4.566;2023-08-01T13:18:43;22.50;99.90
10388;DHT22;5240;51.128;4.566;2023-08-01T13:21:12;22.20;99.90
10388;DHT22;5240;51.128;4.566;2023-08-01T13:23:39;22.10;99.90
10388;DHT22;5240;51.128;4.566;2023-08-01T13:26:06;21.90;99.90
10388;DHT22;5240;51.128;4.566;2023-08-01T13:28:33;22.60;99.90
10388;DHT22;5240;51.128;4.566;2023-08-01T13:31:00;23.40;99.90
10388;DHT22;5240;51.128;4.566;2023-08-01T13:33:27;24.30;99.90
10388;DHT22;5240;51.128;4.566;2023-08-01T13:35:55;25.90;99.90
10388;DHT22;5240;51.128;4.566;2023-08-01T13:38:23;26.20;99.90
10388;DHT22;5240;51.128;4.566;2023-08-01T13:40:50;26.00;99.90
10388;DHT22;5240;51.128;4.566;2023-08-01T13:43:17;26.10;99.90
10388;DHT22;5240;51.128;4.566;2023-08-01T13:45:44;25.70;99.90
10388;DHT22;5240;51.128;4.566;2023-08-01T13:48:11;24.80;99.90
10388;DHT22;5240;51.128;4.566;2023-08-01T13:50:38;24.10;99.90
10388;DHT22;5240;51.128;4.566;2023-08-01T13:53:06;23.40;99.90
10388;DHT22;5240;51.128;4.566;2023-08-01T13:55:36;23.00;99.90
10388;DHT22;5240;51.128;4.566;2023-08-01T13:58:03;22.70;99.90
10388;DHT22;5240;51.128;4.566;2023-08-01T14:00:30;22.50;99.90
10388;DHT22;5240;51.128;4.566;2023-08-01T14:02:57;22.30;99.90
10388;DHT22;5240;51.128;4.566;2023-08-01T14:05:25;22.40;99.90
10388;DHT22;5240;51.128;4.566;2023-08-01T14:07:52;22.60;99.90
10388;DHT22;5240;51.128;4.566;2023-08-01T14:10:22;23.20;99.90
10388;DHT22;5240;51.128;4.566;2023-08-01T14:12:48;23.90;99.90
10388;DHT22;5240;51.128;4.566;2023-08-01T14:15:16;23.30;99.90
10388;DHT22;5240;51.128;4.566;2023-08-01T14:17:44;23.00;99.90
10388;DHT22;5240;51.128;4.566;2023-08-01T14:20:11;22.70;99.90
10388;DHT22;5240;51.128;4.566;2023-08-01T14:22:38;22.50;99.90
10388;DHT22;5240;51.128;4.566;2023-08-01T14:25:06;22.30;99.90
10388;DHT22;5240;51.128;4.566;2023-08-01T14:27:35;22.10;99.90
10388;DHT22;5240;51.128;4.566;2023-08-01T14:30:03;21.80;99.90
10388;DHT22;5240;51.128;4.566;2023-08-01T14:32:31;21.60;99.90
10388;DHT22;5240;51.128;4.566;2023-08-01T14:34:58;21.40;99.90
10388;DHT22;5240;51.128;4.566;2023-08-01T14:37:25;21.20;99.90
10388;DHT22;5240;51.128;4.566;2023-08-01T14:39:53;21.10;99.90
10388;DHT22;5240;51.128;4.566;2023-08-01T14:42:20;20.80;99.90
10388;DHT22;5240;51.128;4.566;2023-08-01T14:44:52;20.60;99.90
10388;DHT22;5240;51.128;4.566;2023-08-01T14:47:20;20.40;99.90
10388;DHT22;5240;51.128;4.566;2023-08-01T14:49:47;20.20;99.90
10388;DHT22;5240;51.128;4.566;2023-08-01T14:52:14;20.20;99.90
10388;DHT22;5240;51.128;4.566;2023-08-01T14:54:41;20.20;99.90
10388;DHT22;5240;51.128;4.566;2023-08-01T14:57:08;20.30;99.90
10388;DHT22;5240;51.128;4.566;2023-08-01T14:59:35;20.50;99.90
10388;DHT22;5240;51.128;4.566;2023-08-01T15:02:04;20.70;99.90
10388;DHT22;5240;51.128;4.566;2023-08-01T15:04:31;20.80;99.90
10388;DHT22;5240;51.128;4.566;2023-08-01T15:07:01;20.80;99.90
10388;DHT22;5240;51.128;4.566;2023-08-01T15:09:28;20.80;99.90
10388;DHT22;5240;51.128;4.566;2023-08-01T15:11:55;20.70;99.90
10388;DHT22;5240;51.128;4.566;2023-08-01T15:14:22;20.60;99.90
10388;DHT22;5240;51.128;4.566;2023-08-01T15:16:49;20.60;99.90
10388;DHT22;5240;51.128;4.566;2023-08-01T15:19:18;20.50;99.90
10388;DHT22;5240;51.128;4.566;2023-08-01T15:21:45;20.60;99.90
10388;DHT22;5240;51.128;4.566;2023-08-01T15:24:12;20.60;99.90
10388;DHT22;5240;51.128;4.566;2023-08-01T15:26:39;20.50;99.90
10388;DHT22;5240;51.128;4.566;2023-08-01T15:29:06;20.60;99.90
10388;DHT22;5240;51.128;4.566;2023-08-01T15:31:33;20.60;99.90
10388;DHT22;5240;51.128;4.566;2023-08-01T15:34:00;20.70;99.90
10388;DHT22;5240;51.128;4.566;2023-08-01T15:36:29;20.80;99.90
10388;DHT22;5240;51.128;4.566;2023-08-01T15:38:56;20.80;99.90
10388;DHT22;5240;51.128;4.566;2023-08-01T15:41:24;20.80;99.90
10388;DHT22;5240;51.128;4.566;2023-08-01T15:43:51;21.00;99.90
10388;DHT22;5240;51.128;4.566;2023-08-01T15:46:18;21.10;99.90
10388;DHT22;5240;51.128;4.566;2023-08-01T15:48:45;21.40;99.90